createdAt,value
2019-04-14T00:01:11.229Z,5.33
2019-04-14T00:02:23.322Z,5.36
2019-04-14T00:03:35.183Z,5.31
2019-04-14T00:04:47.028Z,5.33
2019-04-14T00:05:58.734Z,5.37
2019-04-14T00:07:10.683Z,5.33
2019-04-14T00:08:22.539Z,5.36
2019-04-14T00:09:34.296Z,5.31
2019-04-14T00:10:46.622Z,5.34
2019-04-14T00:11:57.507Z,5.37
2019-04-14T00:13:13.791Z,5.37
2019-04-14T00:14:25.613Z,5.37
2019-04-14T00:15:51.638Z,5.36
2019-04-14T00:17:04.584Z,5.36
2019-04-14T00:18:14.392Z,5.37
2019-04-14T00:19:24.226Z,5.36
2019-04-14T00:20:34.158Z,5.38
2019-04-14T00:21:45.359Z,5.49
2019-04-14T00:22:56.068Z,5.38
2019-04-14T00:24:07.900Z,5.41
2019-04-14T00:25:17.876Z,5.38
2019-04-14T00:26:29.796Z,5.38
2019-04-14T00:27:41.506Z,5.43
2019-04-14T00:28:51.770Z,5.38
2019-04-14T00:30:03.555Z,5.34
2019-04-14T00:31:13.303Z,5.38
2019-04-14T00:32:23.258Z,5.37
2019-04-14T00:33:34.975Z,5.31
2019-04-14T00:34:44.710Z,5.31
2019-04-14T00:35:54.462Z,5.31
2019-04-14T00:37:06.109Z,5.36
2019-04-14T00:38:17.853Z,5.36
2019-04-14T00:39:29.861Z,5.37
2019-04-14T00:40:39.548Z,5.28
2019-04-14T00:42:03.086Z,5.26
2019-04-14T00:43:15.951Z,5.34
2019-04-14T00:44:25.649Z,5.36
2019-04-14T00:45:56.710Z,5.29
2019-04-14T00:47:11.900Z,5.36
2019-04-14T00:48:27.643Z,5.31
2019-04-14T00:49:38.080Z,5.31
2019-04-14T00:50:50.043Z,5.34
2019-04-14T00:52:01.940Z,5.31
2019-04-14T00:53:14.620Z,5.31
2019-04-14T00:54:26.412Z,5.31
2019-04-14T00:55:38.372Z,5.29
2019-04-14T00:56:48.169Z,5.23
2019-04-14T00:57:59.683Z,5.28
2019-04-14T00:59:09.824Z,5.26
2019-04-14T01:00:24.131Z,5.23
2019-04-14T01:01:35.624Z,5.19
2019-04-14T01:02:47.500Z,5.22
2019-04-14T01:03:57.474Z,5.25
2019-04-14T01:05:09.239Z,5.23
2019-04-14T01:06:19.076Z,5.19
2019-04-14T01:07:30.998Z,5.25
2019-04-14T01:08:42.897Z,5.22
2019-04-14T01:09:55.566Z,5.15
2019-04-14T01:11:05.874Z,5.19
2019-04-14T01:12:17.602Z,5.19
2019-04-14T01:13:29.254Z,5.2
2019-04-14T01:14:39.065Z,5.19
2019-04-14T01:16:13.836Z,5.1
2019-04-14T01:17:32.955Z,5.04
2019-04-14T01:18:43.470Z,5.19
2019-04-14T01:19:55.403Z,5.1
2019-04-14T01:21:05.155Z,5.08
2019-04-14T01:22:16.791Z,5.2
2019-04-14T01:23:28.790Z,5.15
2019-04-14T01:24:40.790Z,5.13
2019-04-14T01:25:52.548Z,5.15
2019-04-14T01:27:02.251Z,5.05
2019-04-14T01:28:13.799Z,5.13
2019-04-14T01:29:23.388Z,5.05
2019-04-14T01:30:33.381Z,5.02
2019-04-14T01:31:44.932Z,5.08
2019-04-14T01:32:54.952Z,5.02
2019-04-14T01:34:06.770Z,5.02
2019-04-14T01:35:17.988Z,5.02
2019-04-14T01:36:28.370Z,5.05
2019-04-14T01:37:38.149Z,5.04
2019-04-14T01:38:49.806Z,5.01
2019-04-14T01:40:01.511Z,5.04
2019-04-14T01:41:13.356Z,5
2019-04-14T01:42:25.099Z,5.01
2019-04-14T01:43:36.950Z,5.07
2019-04-14T01:44:48.647Z,5.02
2019-04-14T01:46:26.447Z,5.01
2019-04-14T01:47:42.510Z,4.97
2019-04-14T01:48:52.209Z,4.95
2019-04-14T01:50:02.188Z,4.95
2019-04-14T01:51:12.152Z,5.02
2019-04-14T01:52:21.608Z,5
2019-04-14T01:53:34.045Z,5
2019-04-14T01:54:45.792Z,5.01
2019-04-14T01:55:57.268Z,5.02
2019-04-14T01:57:07.288Z,4.98
2019-04-14T01:58:19.226Z,5.02
2019-04-14T01:59:31.077Z,5.01
2019-04-14T02:00:42.971Z,5.05
2019-04-14T02:01:54.760Z,4.98
2019-04-14T02:03:04.578Z,4.98
2019-04-14T02:04:16.479Z,4.95
2019-04-14T02:05:26.241Z,4.9
2019-04-14T02:06:38.148Z,4.92
2019-04-14T02:07:49.956Z,4.78
2019-04-14T02:09:01.727Z,4.79
2019-04-14T02:10:13.402Z,4.83
2019-04-14T02:11:22.934Z,4.67
2019-04-14T02:12:34.997Z,4.83
2019-04-14T02:13:46.728Z,4.83
2019-04-14T02:14:58.898Z,4.86
2019-04-14T02:16:40.072Z,4.87
2019-04-14T02:18:03.725Z,4.83
2019-04-14T02:19:15.749Z,4.83
2019-04-14T02:20:25.736Z,4.78
2019-04-14T02:21:37.254Z,4.83
2019-04-14T02:22:46.936Z,4.7
2019-04-14T02:23:56.711Z,4.78
2019-04-14T02:25:08.439Z,4.78
2019-04-14T02:26:20.299Z,4.75
2019-04-14T02:27:32.050Z,4.7
2019-04-14T02:28:44.288Z,4.7
2019-04-14T02:29:56.434Z,4.66
2019-04-14T02:32:24.988Z,4.66
2019-04-14T02:40:36.104Z,4.63
2019-04-14T02:44:35.965Z,4.49
2019-04-14T02:49:01.958Z,4.42
2019-04-14T02:52:51.406Z,4.36
2019-04-14T02:56:51.937Z,4.32
2019-04-14T03:00:57.949Z,4.34
2019-04-14T03:04:42.641Z,4.36
2019-04-14T03:08:50.592Z,4.38
2019-04-14T03:12:57.612Z,4.21
2019-04-14T03:21:33.696Z,4.25
2019-04-14T03:25:05.556Z,4.14
2019-04-14T03:28:50.621Z,4.14
2019-04-14T03:41:36.500Z,4.07
2019-04-14T03:49:44.502Z,4.03
2019-04-14T03:53:45.344Z,4.06
2019-04-14T03:56:09.074Z,4.02
2019-04-14T03:57:31.536Z,4.02
2019-04-14T03:58:42.739Z,3.96
2019-04-14T03:59:52.600Z,3.99
2019-04-14T04:01:02.420Z,4.03
2019-04-14T04:02:14.495Z,4.1
2019-04-14T04:03:26.664Z,4.03
2019-04-14T04:04:38.334Z,4.18
2019-04-14T04:05:48.049Z,4.09
2019-04-14T04:06:58.021Z,4.18
2019-04-14T04:08:09.821Z,3.96
2019-04-14T04:09:21.913Z,4.07
2019-04-14T04:10:33.777Z,4.04
2019-04-14T04:11:43.888Z,4.1
2019-04-14T04:12:55.956Z,3.96
2019-04-14T04:14:07.959Z,4.1
2019-04-14T04:15:19.757Z,4.13
2019-04-14T04:16:29.451Z,4.09
2019-04-14T04:17:40.953Z,4.03
2019-04-14T04:19:13.895Z,4
2019-04-14T04:20:28.839Z,4.03
2019-04-14T04:21:40.377Z,3.94
2019-04-14T04:22:50.424Z,3.99
2019-04-14T04:24:00.357Z,4.07
2019-04-14T04:25:11.893Z,4.04
2019-04-14T04:26:21.741Z,4.03
2019-04-14T04:27:31.428Z,3.95
2019-04-14T04:28:41.377Z,4.06
2019-04-14T04:29:53.260Z,4.14
2019-04-14T04:31:05.001Z,4.04
2019-04-14T04:32:17.002Z,4.02
2019-04-14T04:33:28.863Z,4.06
2019-04-14T04:34:40.316Z,3.99
2019-04-14T04:35:50.570Z,4.07
2019-04-14T04:37:00.255Z,3.95
2019-04-14T04:38:12.105Z,3.92
2019-04-14T04:39:24.092Z,3.95
2019-04-14T04:40:33.927Z,3.89
2019-04-14T04:41:45.566Z,4.02
2019-04-14T04:42:57.297Z,3.88
2019-04-14T04:44:07.455Z,3.95
2019-04-14T04:45:17.595Z,3.85
2019-04-14T04:46:29.170Z,3.84
2019-04-14T04:47:41.051Z,3.89
2019-04-14T04:49:18.055Z,3.88
2019-04-14T04:50:37.095Z,3.89
2019-04-14T04:51:49.114Z,3.85
2019-04-14T04:53:01.013Z,3.84
2019-04-14T04:54:12.994Z,3.89
2019-04-14T04:55:24.458Z,3.91
2019-04-14T04:56:34.323Z,3.89
2019-04-14T04:57:44.092Z,3.84
2019-04-14T04:58:54.984Z,3.81
2019-04-14T05:00:05.433Z,3.78
2019-04-14T05:01:15.136Z,3.85
2019-04-14T05:02:26.931Z,3.96
2019-04-14T05:03:36.642Z,3.88
2019-04-14T05:04:46.437Z,3.85
2019-04-14T05:05:58.111Z,3.89
2019-04-14T05:07:09.739Z,3.78
2019-04-14T05:08:19.948Z,3.89
2019-04-14T05:09:30.099Z,3.84
2019-04-14T05:10:39.793Z,3.81
2019-04-14T05:11:56.666Z,3.82
2019-04-14T05:13:07.941Z,3.82
2019-04-14T05:14:17.881Z,3.84
2019-04-14T05:15:28.792Z,3.68
2019-04-14T05:16:39.634Z,3.71
2019-04-14T05:17:50.065Z,3.76
2019-04-14T05:19:31.645Z,3.81
2019-04-14T05:20:48.930Z,3.85
2019-04-14T05:22:00.775Z,3.82
2019-04-14T05:23:10.812Z,3.78
2019-04-14T05:24:20.404Z,3.78
2019-04-14T05:25:30.345Z,3.88
2019-04-14T05:26:41.628Z,3.86
2019-04-14T05:27:52.169Z,3.81
2019-04-14T05:29:03.927Z,3.77
2019-04-14T05:30:16.010Z,3.82
2019-04-14T05:31:32.067Z,3.82
2019-04-14T05:32:43.119Z,3.84
2019-04-14T05:33:53.818Z,3.86
2019-04-14T05:35:03.547Z,3.84
2019-04-14T05:36:15.503Z,3.85
2019-04-14T05:37:27.317Z,3.77
2019-04-14T05:38:41.042Z,3.82
2019-04-14T05:39:50.881Z,3.89
2019-04-14T05:41:03.219Z,3.82
2019-04-14T05:42:28.652Z,3.78
2019-04-14T05:44:00.240Z,3.89
2019-04-14T05:45:13.642Z,3.88
2019-04-14T05:46:25.534Z,3.88
2019-04-14T05:47:35.479Z,3.82
2019-04-14T05:48:47.180Z,3.85
2019-04-14T05:50:01.527Z,3.82
2019-04-14T05:51:13.461Z,3.78
2019-04-14T05:52:29.471Z,3.92
2019-04-14T05:53:39.933Z,3.85
2019-04-14T05:54:51.937Z,3.84
2019-04-14T05:56:04.118Z,3.86
2019-04-14T05:57:16.064Z,3.89
2019-04-14T05:58:28.021Z,3.81
2019-04-14T05:59:37.764Z,3.84
2019-04-14T06:00:50.500Z,3.85
2019-04-14T06:02:05.048Z,3.88
2019-04-14T06:03:15.182Z,3.85
2019-04-14T06:04:24.971Z,3.89
2019-04-14T06:05:36.591Z,3.85
2019-04-14T06:06:48.116Z,3.89
2019-04-14T06:08:00.329Z,3.82
2019-04-14T06:09:09.597Z,3.81
2019-04-14T06:10:19.536Z,3.82
2019-04-14T06:11:29.238Z,3.85
2019-04-14T06:12:38.933Z,3.82
2019-04-14T06:13:48.644Z,3.88
2019-04-14T06:14:58.338Z,3.91
2019-04-14T06:16:08.056Z,3.94
2019-04-14T06:17:18.032Z,3.85
2019-04-14T06:18:27.975Z,3.84
2019-04-14T06:19:43.955Z,3.86
2019-04-14T06:20:53.398Z,3.88
2019-04-14T06:22:03.110Z,3.89
2019-04-14T06:23:12.797Z,3.85
2019-04-14T06:24:22.746Z,3.76
2019-04-14T06:25:32.704Z,3.74
2019-04-14T06:26:43.881Z,3.86
2019-04-14T06:27:53.598Z,3.88
2019-04-14T06:29:03.299Z,3.71
2019-04-14T06:30:13.464Z,3.71
2019-04-14T06:31:23.409Z,3.7
2019-04-14T06:32:33.354Z,3.84
2019-04-14T06:33:43.314Z,3.85
2019-04-14T06:34:53.021Z,3.84
2019-04-14T06:36:02.714Z,3.81
2019-04-14T06:37:12.405Z,3.82
2019-04-14T06:38:22.340Z,3.78
2019-04-14T06:39:32.092Z,3.76
2019-04-14T06:40:42.046Z,3.81
2019-04-14T06:41:51.988Z,3.77
2019-04-14T06:43:01.926Z,3.84
2019-04-14T06:44:11.875Z,3.84
2019-04-14T06:45:21.313Z,3.76
2019-04-14T06:46:31.253Z,3.81
2019-04-14T06:47:41.800Z,3.85
2019-04-14T06:48:51.478Z,3.89
2019-04-14T06:50:01.181Z,3.89
2019-04-14T06:51:11.142Z,3.88
2019-04-14T06:52:21.103Z,3.94
2019-04-14T06:53:31.057Z,3.84
2019-04-14T06:54:40.755Z,3.88
2019-04-14T06:55:50.217Z,3.82
2019-04-14T06:57:02.664Z,3.85
2019-04-14T06:58:12.631Z,3.88
2019-04-14T06:59:22.593Z,3.95
2019-04-14T07:00:32.566Z,3.99
2019-04-14T07:01:43.885Z,3.94
2019-04-14T07:02:53.594Z,3.94
2019-04-14T07:04:03.538Z,3.94
2019-04-14T07:05:13.706Z,3.96
2019-04-14T07:06:23.650Z,3.86
2019-04-14T07:07:33.595Z,3.91
2019-04-14T07:08:43.542Z,3.91
2019-04-14T07:09:53.513Z,3.95
2019-04-14T07:11:03.724Z,3.91
2019-04-14T07:12:14.037Z,3.89
2019-04-14T07:13:24.711Z,3.95
2019-04-14T07:14:36.836Z,3.95
2019-04-14T07:15:46.553Z,3.92
2019-04-14T07:16:56.710Z,3.92
2019-04-14T07:18:06.739Z,3.92
2019-04-14T07:19:19.655Z,3.92
2019-04-14T07:20:29.341Z,3.94
2019-04-14T07:21:39.074Z,3.94
2019-04-14T07:22:49.203Z,3.89
2019-04-14T07:23:59.139Z,3.86
2019-04-14T07:25:09.091Z,3.95
2019-04-14T07:26:18.568Z,3.91
2019-04-14T07:27:28.021Z,3.92
2019-04-14T07:28:37.964Z,3.94
2019-04-14T07:29:47.642Z,3.92
2019-04-14T07:30:57.362Z,4.04
2019-04-14T07:32:06.805Z,4.02
2019-04-14T07:33:16.758Z,4.1
2019-04-14T07:34:26.204Z,3.96
2019-04-14T07:35:36.213Z,4.06
2019-04-14T07:36:45.652Z,4.07
2019-04-14T07:37:55.607Z,4.12
2019-04-14T07:39:05.568Z,4.12
2019-04-14T07:40:14.776Z,4.25
2019-04-14T07:41:24.716Z,4.16
2019-04-14T07:42:34.171Z,4.1
2019-04-14T07:43:43.890Z,4.1
2019-04-14T07:44:54.051Z,4.21
2019-04-14T07:46:03.762Z,4.14
2019-04-14T07:47:13.469Z,4.21
2019-04-14T07:48:23.406Z,4.25
2019-04-14T07:49:35.317Z,4.22
2019-04-14T07:50:45.016Z,4.32
2019-04-14T07:51:54.762Z,4.38
2019-04-14T07:53:04.719Z,4.43
2019-04-14T07:54:14.662Z,4.32
2019-04-14T07:55:24.622Z,4.34
2019-04-14T07:56:34.564Z,4.38
2019-04-14T07:57:44.255Z,4.4
2019-04-14T07:58:54.202Z,4.46
2019-04-14T08:00:04.184Z,4.49
2019-04-14T08:01:14.138Z,4.48
2019-04-14T08:02:23.962Z,4.5
2019-04-14T08:03:34.265Z,4.61
2019-04-14T08:04:44.226Z,4.6
2019-04-14T08:05:53.920Z,4.53
2019-04-14T08:07:03.979Z,4.56
2019-04-14T08:08:13.922Z,4.66
2019-04-14T08:09:23.887Z,4.6
2019-04-14T08:10:33.873Z,4.7
2019-04-14T08:11:43.331Z,4.74
2019-04-14T08:12:53.297Z,4.74
2019-04-14T08:14:03.008Z,4.7
2019-04-14T08:15:12.946Z,4.7
2019-04-14T08:16:22.663Z,4.71
2019-04-14T08:17:32.634Z,4.7
2019-04-14T08:18:42.322Z,4.71
2019-04-14T08:19:52.260Z,4.68
2019-04-14T08:21:02.220Z,4.7
2019-04-14T08:22:11.925Z,4.68
2019-04-14T08:23:21.634Z,4.66
2019-04-14T08:24:31.586Z,4.82
2019-04-14T08:25:41.294Z,4.86
2019-04-14T08:26:51.247Z,4.92
2019-04-14T08:28:00.952Z,5
2019-04-14T08:29:10.849Z,4.98
2019-04-14T08:30:20.803Z,5
2019-04-14T08:31:30.505Z,5.04
2019-04-14T08:32:40.462Z,5.1
2019-04-14T08:33:50.181Z,5.05
2019-04-14T08:35:00.346Z,5.12
2019-04-14T08:36:10.036Z,5.1
2019-04-14T08:37:19.992Z,5.13
2019-04-14T08:38:29.772Z,5.15
2019-04-14T08:39:39.464Z,5.18
2019-04-14T08:40:49.429Z,5.23
2019-04-14T08:41:59.382Z,5.28
2019-04-14T08:43:09.080Z,5.28
2019-04-14T08:44:18.529Z,5.33
2019-04-14T08:45:28.510Z,5.41
2019-04-14T08:46:38.210Z,5.31
2019-04-14T08:47:48.160Z,5.47
2019-04-14T08:48:58.124Z,5.46
2019-04-14T08:50:08.070Z,5.58
2019-04-14T08:51:17.822Z,5.55
2019-04-14T08:52:28.614Z,5.52
2019-04-14T08:53:38.762Z,5.55
2019-04-14T08:54:48.730Z,5.62
2019-04-14T08:55:58.427Z,5.69
2019-04-14T08:57:07.894Z,5.67
2019-04-14T08:58:17.599Z,5.79
2019-04-14T08:59:27.549Z,5.81
2019-04-14T09:00:37.516Z,5.84
2019-04-14T09:01:47.476Z,5.91
2019-04-14T09:02:57.476Z,5.94
2019-04-14T09:04:07.437Z,5.92
2019-04-14T09:05:17.370Z,5.95
2019-04-14T09:06:27.313Z,5.83
2019-04-14T09:07:37.008Z,5.88
2019-04-14T09:08:46.956Z,5.81
2019-04-14T09:09:56.654Z,5.95
2019-04-14T09:11:06.374Z,5.83
2019-04-14T09:12:20.685Z,5.91
2019-04-14T09:13:30.678Z,5.87
2019-04-14T09:14:40.628Z,5.88
2019-04-14T09:16:03.475Z,5.87
2019-04-14T09:17:13.243Z,5.94
2019-04-14T09:18:22.935Z,5.98
2019-04-14T09:19:32.670Z,5.94
2019-04-14T09:20:54.650Z,5.97
2019-04-14T09:22:04.669Z,6.01
2019-04-14T09:23:14.379Z,6.13
2019-04-14T09:24:24.072Z,6.13
2019-04-14T09:25:33.780Z,6.12
2019-04-14T09:26:43.733Z,6.19
2019-04-14T09:27:53.692Z,6.16
2019-04-14T09:29:03.389Z,6.22
2019-04-14T09:30:13.340Z,6.19
2019-04-14T09:31:23.310Z,6.16
2019-04-14T09:32:33.001Z,6.22
2019-04-14T09:33:42.970Z,6.19
2019-04-14T09:34:52.939Z,6.28
2019-04-14T09:36:02.636Z,6.35
2019-04-14T09:37:14.626Z,6.35
2019-04-14T09:38:24.351Z,6.36
2019-04-14T09:39:34.042Z,6.36
2019-04-14T09:40:43.995Z,6.36
2019-04-14T09:41:54.013Z,6.35
2019-04-14T09:43:03.981Z,6.43
2019-04-14T09:44:13.918Z,6.43
2019-04-14T09:45:23.893Z,6.32
2019-04-14T09:46:33.845Z,6.41
2019-04-14T09:47:43.803Z,6.36
2019-04-14T09:48:53.519Z,6.31
2019-04-14T09:50:03.217Z,6.36
2019-04-14T09:51:12.907Z,6.36
2019-04-14T09:52:22.615Z,6.36
2019-04-14T09:53:32.065Z,6.41
2019-04-14T09:54:42.014Z,6.36
2019-04-14T09:55:51.956Z,6.38
2019-04-14T09:57:01.912Z,6.32
2019-04-14T09:58:11.716Z,6.26
2019-04-14T09:59:21.753Z,6.25
2019-04-14T10:00:31.857Z,6.28
2019-04-14T10:01:42.161Z,6.25
2019-04-14T10:02:52.123Z,6.32
2019-04-14T10:04:02.117Z,6.29
2019-04-14T10:05:12.132Z,6.28
2019-04-14T10:06:22.106Z,6.17
2019-04-14T10:07:32.343Z,6.12
2019-04-14T10:08:42.243Z,6.25
2019-04-14T10:09:52.242Z,6.22
2019-04-14T10:11:01.799Z,6.31
2019-04-14T10:12:11.753Z,6.17
2019-04-14T10:13:21.719Z,6.29
2019-04-14T10:14:31.422Z,6.26
2019-04-14T10:15:40.872Z,6.32
2019-04-14T10:16:50.570Z,6.31
2019-04-14T10:18:00.025Z,6.32
2019-04-14T10:19:09.998Z,6.28
2019-04-14T10:20:19.701Z,6.29
2019-04-14T10:21:29.407Z,6.29
2019-04-14T10:22:39.374Z,6.29
2019-04-14T10:23:49.073Z,6.35
2019-04-14T10:24:59.037Z,6.28
2019-04-14T10:26:09.008Z,6.29
2019-04-14T10:27:18.962Z,6.32
2019-04-14T10:28:28.906Z,6.22
2019-04-14T10:29:38.864Z,6.28
2019-04-14T10:30:48.819Z,6.22
2019-04-14T10:31:58.783Z,6.28
2019-04-14T10:33:08.235Z,6.26
2019-04-14T10:34:17.955Z,6.29
2019-04-14T10:35:27.662Z,6.35
2019-04-14T10:36:37.606Z,6.36
2019-04-14T10:37:47.323Z,6.43
2019-04-14T10:38:57.043Z,6.39
2019-04-14T10:40:08.551Z,6.39
2019-04-14T10:41:19.104Z,6.46
2019-04-14T10:42:29.076Z,6.39
2019-04-14T10:43:39.055Z,6.44
2019-04-14T10:44:49.016Z,6.36
2019-04-14T10:45:58.729Z,6.39
2019-04-14T10:47:08.442Z,6.43
2019-04-14T10:48:18.384Z,6.36
2019-04-14T10:49:28.372Z,6.47
2019-04-14T10:50:38.069Z,6.52
2019-04-14T10:51:48.260Z,6.5
2019-04-14T10:52:57.782Z,6.49
2019-04-14T10:54:07.739Z,6.53
2019-04-14T10:55:17.710Z,6.49
2019-04-14T10:56:27.493Z,6.52
2019-04-14T10:57:36.700Z,6.49
2019-04-14T10:58:46.168Z,6.52
2019-04-14T10:59:55.895Z,6.44
2019-04-14T11:01:05.876Z,6.56
2019-04-14T11:02:15.593Z,6.46
2019-04-14T11:03:25.337Z,6.5
2019-04-14T11:04:35.113Z,6.57
2019-04-14T11:05:45.089Z,6.56
2019-04-14T11:06:55.048Z,6.56
2019-04-14T11:08:05.021Z,6.52
2019-04-14T11:09:15.007Z,6.6
2019-04-14T11:10:24.963Z,6.62
2019-04-14T11:11:35.018Z,6.59
2019-04-14T11:12:45.013Z,6.59
2019-04-14T11:13:54.996Z,6.65
2019-04-14T11:15:04.954Z,6.68
2019-04-14T11:16:14.924Z,6.67
2019-04-14T11:17:24.653Z,6.68
2019-04-14T11:18:34.619Z,6.75
2019-04-14T11:19:44.319Z,6.82
2019-04-14T11:20:54.026Z,6.9
2019-04-14T11:22:03.997Z,6.9
2019-04-14T11:23:12.959Z,6.87
2019-04-14T11:24:24.037Z,6.87
2019-04-14T11:25:34.105Z,6.87
2019-04-14T11:26:44.083Z,6.89
2019-04-14T11:27:53.794Z,6.89
2019-04-14T11:29:03.771Z,6.89
2019-04-14T11:30:13.753Z,6.93
2019-04-14T11:31:23.465Z,6.97
2019-04-14T11:32:33.176Z,7
2019-04-14T11:33:43.123Z,6.93
2019-04-14T11:34:53.078Z,7.07
2019-04-14T11:36:02.790Z,7.07
2019-04-14T11:37:12.753Z,7.18
2019-04-14T11:38:22.725Z,7.22
2019-04-14T11:39:32.694Z,7.18
2019-04-14T11:40:42.654Z,7.18
2019-04-14T11:41:52.403Z,7.28
2019-04-14T11:43:02.162Z,7.32
2019-04-14T11:44:12.238Z,7.36
2019-04-14T11:45:21.747Z,7.44
2019-04-14T11:46:31.777Z,7.46
2019-04-14T11:47:41.748Z,7.47
2019-04-14T11:48:51.456Z,7.47
2019-04-14T11:50:01.397Z,7.55
2019-04-14T11:51:11.189Z,7.61
2019-04-14T11:52:21.149Z,7.66
2019-04-14T11:53:31.114Z,7.72
2019-04-14T11:54:40.838Z,7.69
2019-04-14T11:55:50.803Z,7.81
2019-04-14T11:57:00.767Z,7.7
2019-04-14T11:58:10.734Z,7.78
2019-04-14T11:59:20.698Z,7.81
2019-04-14T12:00:31.049Z,7.88
2019-04-14T12:01:40.855Z,7.84
2019-04-14T12:02:50.578Z,7.96
2019-04-14T12:04:00.550Z,8.03
2019-04-14T12:05:10.287Z,8.13
2019-04-14T12:06:19.975Z,8.2
2019-04-14T12:07:29.922Z,8.34
2019-04-14T12:08:39.626Z,8.39
2019-04-14T12:09:50.968Z,8.39
2019-04-14T12:11:00.675Z,8.44
2019-04-14T12:12:10.611Z,8.66
2019-04-14T12:13:20.571Z,8.66
2019-04-14T12:14:30.584Z,8.66
2019-04-14T12:15:40.293Z,8.78
2019-04-14T12:16:50.250Z,8.78
2019-04-14T12:17:59.955Z,8.87
2019-04-14T12:19:09.907Z,8.89
2019-04-14T12:20:19.609Z,8.87
2019-04-14T12:21:29.567Z,8.86
2019-04-14T12:22:39.274Z,8.96
2019-04-14T12:23:49.222Z,8.9
2019-04-14T12:24:59.271Z,8.9
2019-04-14T12:26:10.487Z,8.96
2019-04-14T12:27:20.437Z,8.96
2019-04-14T12:28:31.757Z,9.09
2019-04-14T12:29:41.540Z,9.09
2019-04-14T12:30:51.628Z,9.09
2019-04-14T12:32:02.258Z,9.08
2019-04-14T12:33:11.972Z,9.13
2019-04-14T12:34:23.319Z,9.16
2019-04-14T12:35:33.054Z,9.26
2019-04-14T12:36:42.758Z,9.27
2019-04-14T12:37:52.441Z,9.27
2019-04-14T12:39:02.437Z,9.26
2019-04-14T12:40:12.715Z,9.3
2019-04-14T12:41:22.551Z,9.34
2019-04-14T12:42:31.817Z,9.31
2019-04-14T12:43:41.521Z,9.34
2019-04-14T12:44:50.970Z,9.34
2019-04-14T12:46:00.969Z,9.42
2019-04-14T12:47:13.840Z,9.4
2019-04-14T12:48:23.551Z,9.55
2019-04-14T12:49:33.302Z,9.56
2019-04-14T12:50:42.751Z,9.58
2019-04-14T12:51:52.710Z,9.62
2019-04-14T12:53:02.691Z,9.67
2019-04-14T12:54:14.002Z,9.7
2019-04-14T12:55:23.788Z,9.72
2019-04-14T12:56:33.734Z,9.7
2019-04-14T12:57:43.442Z,9.73
2019-04-14T12:58:53.154Z,9.73
2019-04-14T13:00:03.120Z,9.81
2019-04-14T13:01:12.574Z,9.9
2019-04-14T13:02:22.299Z,9.8
2019-04-14T13:03:32.350Z,10.02
2019-04-14T13:04:42.351Z,10.09
2019-04-14T13:05:52.346Z,10.1
2019-04-14T13:07:02.048Z,10.21
2019-04-14T13:08:11.999Z,10.23
2019-04-14T13:09:21.712Z,10.36
2019-04-14T13:10:31.706Z,10.39
2019-04-14T13:11:41.400Z,10.48
2019-04-14T13:12:51.353Z,10.58
2019-04-14T13:14:01.680Z,10.75
2019-04-14T13:15:11.418Z,10.94
2019-04-14T13:16:21.403Z,11
2019-04-14T13:17:30.867Z,11.04
2019-04-14T13:18:40.830Z,11.12
2019-04-14T13:19:50.807Z,11.18
2019-04-14T13:21:00.780Z,11.22
2019-04-14T13:22:10.720Z,11.22
2019-04-14T13:23:20.681Z,11.2
2019-04-14T13:24:30.672Z,11.3
2019-04-14T13:25:40.413Z,11.3
2019-04-14T13:26:50.375Z,11.33
2019-04-14T13:28:00.077Z,11.33
2019-04-14T13:29:10.081Z,11.25
2019-04-14T13:30:20.049Z,11.3
2019-04-14T13:31:30.023Z,11.19
2019-04-14T13:32:40.957Z,11.22
2019-04-14T13:33:50.421Z,11.15
2019-04-14T13:35:02.575Z,11.23
2019-04-14T13:36:12.115Z,11.3
2019-04-14T13:37:21.841Z,11.25
2019-04-14T13:38:31.785Z,11.35
2019-04-14T13:39:41.736Z,11.52
2019-04-14T13:40:51.704Z,11.45
2019-04-14T13:42:01.665Z,11.59
2019-04-14T13:43:11.636Z,11.59
2019-04-14T13:44:21.614Z,11.55
2019-04-14T13:45:31.608Z,11.74
2019-04-14T13:46:41.789Z,11.68
2019-04-14T13:47:51.738Z,11.65
2019-04-14T13:49:01.695Z,11.7
2019-04-14T13:50:11.380Z,11.76
2019-04-14T13:51:21.142Z,11.68
2019-04-14T13:52:45.663Z,11.65
2019-04-14T13:53:55.690Z,11.6
2019-04-14T13:55:05.471Z,11.56
2019-04-14T13:56:15.173Z,11.58
2019-04-14T13:57:24.894Z,11.58
2019-04-14T13:58:37.379Z,11.67
2019-04-14T13:59:48.905Z,11.7
2019-04-14T14:00:58.850Z,11.7
2019-04-14T14:02:08.320Z,11.77
2019-04-14T14:03:18.018Z,11.71
2019-04-14T14:04:28.054Z,11.77
2019-04-14T14:05:38.053Z,11.74
2019-04-14T14:06:51.002Z,11.68
2019-04-14T14:08:00.958Z,11.78
2019-04-14T14:09:10.481Z,11.91
2019-04-14T14:10:20.194Z,11.91
2019-04-14T14:11:32.187Z,12.02
2019-04-14T14:12:42.379Z,12.14
2019-04-14T14:13:52.102Z,12.3
2019-04-14T14:15:01.832Z,12.37
2019-04-14T14:16:11.777Z,12.53
2019-04-14T14:17:23.601Z,12.76
2019-04-14T14:18:33.524Z,12.99
2019-04-14T14:19:43.536Z,13.2
2019-04-14T14:20:53.514Z,13.45
2019-04-14T14:22:03.501Z,13.52
2019-04-14T14:23:12.965Z,13.62
2019-04-14T14:24:22.920Z,13.7
2019-04-14T14:25:32.397Z,13.62
2019-04-14T14:26:42.105Z,13.54
2019-04-14T14:27:51.571Z,13.47
2019-04-14T14:29:01.568Z,13.36
2019-04-14T14:30:11.280Z,13.33
2019-04-14T14:31:21.260Z,13.36
2019-04-14T14:32:31.272Z,13.31
2019-04-14T14:33:40.996Z,13.36
2019-04-14T14:34:53.108Z,13.37
2019-04-14T14:36:03.085Z,13.31
2019-04-14T14:37:13.036Z,13.17
2019-04-14T14:38:23.011Z,13.28
2019-04-14T14:39:32.964Z,13.2
2019-04-14T14:40:42.444Z,13.3
2019-04-14T14:41:54.612Z,13.19
2019-04-14T14:43:04.417Z,13.16
2019-04-14T14:44:14.396Z,13.11
2019-04-14T14:45:24.096Z,13.06
2019-04-14T14:46:36.703Z,13.06
2019-04-14T14:47:47.171Z,12.94
2019-04-14T14:48:57.129Z,12.84
2019-04-14T14:50:07.093Z,12.9
2019-04-14T14:51:17.055Z,12.94
2019-04-14T14:52:27.046Z,12.88
2019-04-14T14:53:36.494Z,12.84
2019-04-14T14:54:46.450Z,12.78
2019-04-14T14:55:55.908Z,12.76
2019-04-14T14:57:05.453Z,12.78
2019-04-14T14:58:15.414Z,12.73
2019-04-14T14:59:25.384Z,12.66
2019-04-14T15:00:35.347Z,12.72
2019-04-14T15:01:45.329Z,12.61
2019-04-14T15:02:54.282Z,12.78
2019-04-14T15:04:04.913Z,12.76
2019-04-14T15:05:14.643Z,12.8
2019-04-14T15:06:24.351Z,12.75
2019-04-14T15:07:34.071Z,12.75
2019-04-14T15:08:44.053Z,12.78
2019-04-14T15:09:53.771Z,12.88
2019-04-14T15:11:06.727Z,12.87
2019-04-14T15:12:16.672Z,12.84
2019-04-14T15:13:26.470Z,12.98
2019-04-14T15:14:36.215Z,12.88
2019-04-14T15:15:45.925Z,12.78
2019-04-14T15:16:55.879Z,12.93
2019-04-14T15:18:05.842Z,12.93
2019-04-14T15:19:15.821Z,12.88
2019-04-14T15:20:25.983Z,12.93
2019-04-14T15:21:35.958Z,13.03
2019-04-14T15:22:45.929Z,12.9
2019-04-14T15:23:57.627Z,12.98
2019-04-14T15:25:07.597Z,12.9
2019-04-14T15:26:17.311Z,12.75
2019-04-14T15:27:27.030Z,12.76
2019-04-14T15:28:36.734Z,12.75
2019-04-14T15:29:46.905Z,12.65
2019-04-14T15:30:56.648Z,12.61
2019-04-14T15:32:06.609Z,12.69
2019-04-14T15:33:16.101Z,12.61
2019-04-14T15:34:25.820Z,12.51
2019-04-14T15:35:35.541Z,12.5
2019-04-14T15:36:45.516Z,12.51
2019-04-14T15:37:55.471Z,12.53
2019-04-14T15:39:05.439Z,12.5
2019-04-14T15:40:15.131Z,12.51
2019-04-14T15:41:25.144Z,12.51
2019-04-14T15:42:35.099Z,12.47
2019-04-14T15:43:45.067Z,12.53
2019-04-14T15:44:55.033Z,12.61
2019-04-14T15:46:05.000Z,12.65
2019-04-14T15:47:14.752Z,12.76
2019-04-14T15:48:24.719Z,12.75
2019-04-14T15:49:34.435Z,12.76
2019-04-14T15:50:44.376Z,12.78
2019-04-14T15:51:54.072Z,12.73
2019-04-14T15:53:04.035Z,12.81
2019-04-14T15:54:14.000Z,12.8
2019-04-14T15:55:24.006Z,12.75
2019-04-14T15:56:33.901Z,12.73
2019-04-14T15:57:43.631Z,12.65
2019-04-14T15:58:53.660Z,12.57
2019-04-14T16:00:03.674Z,12.54
2019-04-14T16:01:13.372Z,12.48
2019-04-14T16:02:23.361Z,12.45
2019-04-14T16:03:33.365Z,12.45
2019-04-14T16:04:42.828Z,12.5
2019-04-14T16:05:52.983Z,12.39
2019-04-14T16:07:02.939Z,12.35
2019-04-14T16:08:12.632Z,12.35
2019-04-14T16:09:22.654Z,12.37
2019-04-14T16:10:32.837Z,12.35
2019-04-14T16:11:44.880Z,12.39
2019-04-14T16:12:55.055Z,12.3
2019-04-14T16:14:04.523Z,12.33
2019-04-14T16:15:14.491Z,12.37
2019-04-14T16:16:24.213Z,12.32
2019-04-14T16:17:33.928Z,12.33
2019-04-14T16:18:43.899Z,12.3
2019-04-14T16:19:53.371Z,12.28
2019-04-14T16:21:03.317Z,12.2
2019-04-14T16:22:12.547Z,12.12
2019-04-14T16:23:22.265Z,12.02
2019-04-14T16:24:32.005Z,11.99
2019-04-14T16:25:41.749Z,12.07
2019-04-14T16:26:51.217Z,12.03
2019-04-14T16:28:00.931Z,11.99
2019-04-14T16:29:10.700Z,11.96
2019-04-14T16:30:20.744Z,11.99
2019-04-14T16:31:30.493Z,11.91
2019-04-14T16:32:40.457Z,11.91
2019-04-14T16:33:50.414Z,11.96
2019-04-14T16:34:59.881Z,11.86
2019-04-14T16:36:09.601Z,11.8
2019-04-14T16:37:19.327Z,11.85
2019-04-14T16:38:29.315Z,11.8
2019-04-14T16:39:39.042Z,11.8
2019-04-14T16:40:49.013Z,11.76
2019-04-14T16:41:59.053Z,11.65
2019-04-14T16:43:09.099Z,11.67
2019-04-14T16:44:19.081Z,11.7
2019-04-14T16:45:29.040Z,11.63